sensor_id;sensor_type;location;lat;lon;timestamp;pressure;altitude;pressure_sealevel;temperature;humidity
23733;BME280;12047;53.450;-2.286;2023-03-16T00:02:17;100190.00;;;12.99;100.00
23733;BME280;12047;53.450;-2.286;2023-03-16T00:07:18;100182.03;;;13.23;100.00
23733;BME280;12047;53.450;-2.286;2023-03-16T00:12:19;100158.75;;;13.09;100.00
23733;BME280;12047;53.450;-2.286;2023-03-16T00:17:20;100163.22;;;13.08;100.00
23733;BME280;12047;53.450;-2.286;2023-03-16T00:22:23;100165.28;;;13.70;100.00
23733;BME280;12047;53.450;-2.286;2023-03-16T00:27:25;100140.97;;;13.81;100.00
23733;BME280;12047;53.450;-2.286;2023-03-16T00:32:32;100128.97;;;13.85;100.00
23733;BME280;12047;53.450;-2.286;2023-03-16T00:37:33;100118.53;;;13.75;100.00
23733;BME280;12047;53.450;-2.286;2023-03-16T00:42:34;100115.94;;;13.90;100.00
23733;BME280;12047;53.450;-2.286;2023-03-16T00:47:34;100110.69;;;13.82;100.00
23733;BME280;12047;53.450;-2.286;2023-03-16T00:52:35;100095.88;;;14.10;100.00
23733;BME280;12047;53.450;-2.286;2023-03-16T00:57:36;100094.31;;;13.54;100.00
23733;BME280;12047;53.450;-2.286;2023-03-16T01:02:38;100073.94;;;13.69;100.00
23733;BME280;12047;53.450;-2.286;2023-03-16T01:07:39;100064.97;;;14.01;100.00
23733;BME280;12047;53.450;-2.286;2023-03-16T01:12:40;100048.97;;;14.01;100.00
23733;BME280;12047;53.450;-2.286;2023-03-16T01:17:41;100046.84;;;14.19;100.00
23733;BME280;12047;53.450;-2.286;2023-03-16T01:22:41;100033.03;;;14.39;100.00
23733;BME280;12047;53.450;-2.286;2023-03-16T01:27:42;100028.16;;;14.05;100.00
23733;BME280;12047;53.450;-2.286;2023-03-16T01:32:42;100022.22;;;14.17;100.00
23733;BME280;12047;53.450;-2.286;2023-03-16T01:37:43;100020.56;;;14.16;100.00
23733;BME280;12047;53.450;-2.286;2023-03-16T01:42:46;100014.72;;;15.11;100.00
23733;BME280;12047;53.450;-2.286;2023-03-16T01:47:46;100016.34;;;14.68;100.00
23733;BME280;12047;53.450;-2.286;2023-03-16T01:52:47;100004.72;;;14.46;100.00
23733;BME280;12047;53.450;-2.286;2023-03-16T01:57:48;100006.25;;;14.92;100.00
23733;BME280;12047;53.450;-2.286;2023-03-16T02:02:53;100004.72;;;14.46;100.00
23733;BME280;12047;53.450;-2.286;2023-03-16T02:07:55;99999.91;;;14.79;100.00
23733;BME280;12047;53.450;-2.286;2023-03-16T02:12:58;99996.94;;;15.47;100.00
23733;BME280;12047;53.450;-2.286;2023-03-16T02:17:59;99996.59;;;14.77;100.00
23733;BME280;12047;53.450;-2.286;2023-03-16T02:23:00;99990.91;;;14.80;100.00
23733;BME280;12047;53.450;-2.286;2023-03-16T02:33:27;99955.84;;;14.97;100.00
23733;BME280;12047;53.450;-2.286;2023-03-16T02:38:28;99955.69;;;14.84;100.00
23733;BME280;12047;53.450;-2.286;2023-03-16T02:43:32;99956.75;;;14.90;100.00
23733;BME280;12047;53.450;-2.286;2023-03-16T02:48:46;99961.19;;;14.97;100.00
23733;BME280;12047;53.450;-2.286;2023-03-16T02:53:48;99944.63;;;15.53;100.00
23733;BME280;12047;53.450;-2.286;2023-03-16T02:58:49;99959.06;;;15.08;100.00
23733;BME280;12047;53.450;-2.286;2023-03-16T03:03:49;99943.63;;;15.39;100.00
23733;BME280;12047;53.450;-2.286;2023-03-16T03:08:50;99941.41;;;14.92;100.00
23733;BME280;12047;53.450;-2.286;2023-03-16T03:13:50;99933.78;;;15.40;100.00
23733;BME280;12047;53.450;-2.286;2023-03-16T03:18:51;99929.81;;;14.85;100.00
23733;BME280;12047;53.450;-2.286;2023-03-16T03:23:54;99935.91;;;15.44;100.00
23733;BME280;12047;53.450;-2.286;2023-03-16T03:28:54;99931.06;;;15.33;100.00
23733;BME280;12047;53.450;-2.286;2023-03-16T03:33:55;99932.97;;;15.39;100.00
23733;BME280;12047;53.450;-2.286;2023-03-16T03:38:55;99924.22;;;15.45;100.00
23733;BME280;12047;53.450;-2.286;2023-03-16T03:43:56;99914.84;;;15.35;100.00
23733;BME280;12047;53.450;-2.286;2023-03-16T03:48:56;99922.59;;;15.65;100.00
23733;BME280;12047;53.450;-2.286;2023-03-16T03:54:02;99926.09;;;15.66;100.00
23733;BME280;12047;53.450;-2.286;2023-03-16T03:59:03;99914.19;;;14.96;100.00
23733;BME280;12047;53.450;-2.286;2023-03-16T04:04:03;99910.13;;;15.51;100.00
23733;BME280;12047;53.450;-2.286;2023-03-16T04:09:04;99912.00;;;15.72;100.00
23733;BME280;12047;53.450;-2.286;2023-03-16T04:14:04;99905.72;;;15.44;100.00
23733;BME280;12047;53.450;-2.286;2023-03-16T04:19:05;99897.47;;;15.24;100.00
23733;BME280;12047;53.450;-2.286;2023-03-16T04:24:06;99893.56;;;15.41;100.00
23733;BME280;12047;53.450;-2.286;2023-03-16T04:29:06;99891.63;;;15.92;100.00
23733;BME280;12047;53.450;-2.286;2023-03-16T04:34:07;99895.06;;;15.86;100.00
23733;BME280;12047;53.450;-2.286;2023-03-16T04:39:08;99897.22;;;15.97;100.00
23733;BME280;12047;53.450;-2.286;2023-03-16T04:44:09;99894.88;;;15.88;100.00
23733;BME280;12047;53.450;-2.286;2023-03-16T04:49:10;99897.03;;;15.99;100.00
23733;BME280;12047;53.450;-2.286;2023-03-16T04:54:10;99887.50;;;16.46;100.00
23733;BME280;12047;53.450;-2.286;2023-03-16T04:59:11;99873.28;;;15.83;100.00
23733;BME280;12047;53.450;-2.286;2023-03-16T05:04:11;99873.56;;;15.94;100.00
23733;BME280;12047;53.450;-2.286;2023-03-16T05:09:12;99886.63;;;16.39;100.00
23733;BME280;12047;53.450;-2.286;2023-03-16T05:14:13;99885.97;;;16.02;100.00
23733;BME280;12047;53.450;-2.286;2023-03-16T05:19:13;99889.50;;;16.09;100.00
23733;BME280;12047;53.450;-2.286;2023-03-16T05:24:14;99888.44;;;16.04;100.00
23733;BME280;12047;53.450;-2.286;2023-03-16T05:29:14;99883.44;;;15.94;100.00
23733;BME280;12047;53.450;-2.286;2023-03-16T05:34:14;99876.13;;;15.81;100.00
23733;BME280;12047;53.450;-2.286;2023-03-16T05:39:15;99883.69;;;15.99;100.00
23733;BME280;12047;53.450;-2.286;2023-03-16T05:44:15;99876.28;;;16.57;100.00
23733;BME280;12047;53.450;-2.286;2023-03-16T05:49:16;99859.06;;;16.38;100.00
23733;BME280;12047;53.450;-2.286;2023-03-16T05:54:17;99861.72;;;16.31;100.00
23733;BME280;12047;53.450;-2.286;2023-03-16T05:59:17;99864.16;;;16.26;100.00
23733;BME280;12047;53.450;-2.286;2023-03-16T06:04:18;99857.50;;;16.16;100.00
23733;BME280;12047;53.450;-2.286;2023-03-16T06:09:18;99859.91;;;16.39;100.00
23733;BME280;12047;53.450;-2.286;2023-03-16T06:14:19;99845.88;;;17.06;100.00
23733;BME280;12047;53.450;-2.286;2023-03-16T06:19:19;99841.91;;;16.54;100.00
23733;BME280;12047;53.450;-2.286;2023-03-16T06:24:20;99849.34;;;16.24;100.00
23733;BME280;12047;53.450;-2.286;2023-03-16T06:29:21;99863.22;;;16.41;100.00
23733;BME280;12047;53.450;-2.286;2023-03-16T06:34:21;99844.50;;;16.06;100.00
23733;BME280;12047;53.450;-2.286;2023-03-16T06:39:22;99848.44;;;16.17;100.00
23733;BME280;12047;53.450;-2.286;2023-03-16T06:44:23;99846.72;;;16.37;100.00
23733;BME280;12047;53.450;-2.286;2023-03-16T06:49:23;99835.78;;;16.25;100.00
23733;BME280;12047;53.450;-2.286;2023-03-16T06:54:24;99843.34;;;16.22;100.00
23733;BME280;12047;53.450;-2.286;2023-03-16T06:59:24;99840.94;;;16.33;100.00
23733;BME280;12047;53.450;-2.286;2023-03-16T07:04:24;99837.03;;;16.29;100.00
23733;BME280;12047;53.450;-2.286;2023-03-16T07:09:28;99840.19;;;16.12;100.00
23733;BME280;12047;53.450;-2.286;2023-03-16T07:14:28;99839.16;;;16.41;100.00
23733;BME280;12047;53.450;-2.286;2023-03-16T07:19:29;99845.19;;;15.93;100.00
23733;BME280;12047;53.450;-2.286;2023-03-16T07:24:30;99830.09;;;16.07;100.00
23733;BME280;12047;53.450;-2.286;2023-03-16T07:29:31;99841.38;;;16.30;100.00
23733;BME280;12047;53.450;-2.286;2023-03-16T07:34:33;99839.78;;;16.08;100.00
23733;BME280;12047;53.450;-2.286;2023-03-16T07:39:35;99841.34;;;15.75;100.00
23733;BME280;12047;53.450;-2.286;2023-03-16T07:44:35;99841.91;;;16.54;100.00
23733;BME280;12047;53.450;-2.286;2023-03-16T07:49:36;99833.97;;;16.32;100.00
23733;BME280;12047;53.450;-2.286;2023-03-16T07:54:37;99839.94;;;16.34;100.00
23733;BME280;12047;53.450;-2.286;2023-03-16T07:59:37;99835.34;;;16.56;100.00
23733;BME280;12047;53.450;-2.286;2023-03-16T08:04:38;99834.16;;;16.31;100.00
23733;BME280;12047;53.450;-2.286;2023-03-16T08:09:42;99831.41;;;16.52;100.00
23733;BME280;12047;53.450;-2.286;2023-03-16T08:14:42;99819.41;;;16.42;100.00
23733;BME280;12047;53.450;-2.286;2023-03-16T08:19:44;99831.66;;;15.95;100.00
23733;BME280;12047;53.450;-2.286;2023-03-16T08:24:45;99841.88;;;16.19;100.00
23733;BME280;12047;53.450;-2.286;2023-03-16T08:29:46;99834.72;;;16.61;100.00
23733;BME280;12047;53.450;-2.286;2023-03-16T08:34:51;99834.66;;;16.48;100.00
23733;BME280;12047;53.450;-2.286;2023-03-16T08:39:53;99838.44;;;16.25;100.00
23733;BME280;12047;53.450;-2.286;2023-03-16T08:44:54;99837.38;;;16.54;100.00
23733;BME280;12047;53.450;-2.286;2023-03-16T08:49:55;99830.38;;;16.19;100.00
23733;BME280;12047;53.450;-2.286;2023-03-16T08:54:56;99827.72;;;16.19;100.00
23733;BME280;12047;53.450;-2.286;2023-03-16T08:59:57;99828.38;;;16.27;100.00
23733;BME280;12047;53.450;-2.286;2023-03-16T09:04:58;99828.81;;;16.31;100.00
23733;BME280;12047;53.450;-2.286;2023-03-16T09:09:58;99835.31;;;16.50;100.00
23733;BME280;12047;53.450;-2.286;2023-03-16T09:14:58;99836.22;;;16.29;100.00
23733;BME280;12047;53.450;-2.286;2023-03-16T09:19:59;99824.13;;;16.40;100.00
23733;BME280;12047;53.450;-2.286;2023-03-16T09:25:01;99827.69;;;16.88;100.00
23733;BME280;12047;53.450;-2.286;2023-03-16T09:30:05;99811.28;;;17.04;100.00
23733;BME280;12047;53.450;-2.286;2023-03-16T09:35:07;99825.56;;;16.70;100.00
23733;BME280;12047;53.450;-2.286;2023-03-16T09:40:19;99814.97;;;16.62;100.00
23733;BME280;12047;53.450;-2.286;2023-03-16T09:50:42;99806.97;;;16.62;100.00
23733;BME280;12047;53.450;-2.286;2023-03-16T09:55:47;99816.88;;;17.22;100.00
23733;BME280;12047;53.450;-2.286;2023-03-16T10:06:12;99795.69;;;17.34;100.00
23733;BME280;12047;53.450;-2.286;2023-03-16T10:11:32;99797.78;;;17.52;100.00
23733;BME280;12047;53.450;-2.286;2023-03-16T10:22:29;99792.78;;;17.16;100.00
23733;BME280;12047;53.450;-2.286;2023-03-16T10:27:33;99789.75;;;17.98;100.00
23733;BME280;12047;53.450;-2.286;2023-03-16T10:32:33;99792.84;;;17.68;100.00
23733;BME280;12047;53.450;-2.286;2023-03-16T10:37:36;99777.53;;;17.16;100.00
23733;BME280;12047;53.450;-2.286;2023-03-16T10:42:37;99768.28;;;17.19;100.00
23733;BME280;12047;53.450;-2.286;2023-03-16T10:47:38;99769.94;;;17.33;100.00
23733;BME280;12047;53.450;-2.286;2023-03-16T10:52:42;99767.25;;;17.33;100.00
23733;BME280;12047;53.450;-2.286;2023-03-16T10:57:54;99773.38;;;16.94;100.00
23733;BME280;12047;53.450;-2.286;2023-03-16T11:02:57;99774.28;;;17.41;100.00
23733;BME280;12047;53.450;-2.286;2023-03-16T11:08:07;99762.72;;;17.07;100.00
23733;BME280;12047;53.450;-2.286;2023-03-16T11:13:16;99768.31;;;17.45;100.00
23733;BME280;12047;53.450;-2.286;2023-03-16T11:18:30;99757.38;;;17.86;100.00
23733;BME280;12047;53.450;-2.286;2023-03-16T11:23:32;99779.22;;;17.44;100.00
23733;BME280;12047;53.450;-2.286;2023-03-16T11:28:39;99782.50;;;18.18;100.00
23733;BME280;12047;53.450;-2.286;2023-03-16T11:33:43;99782.13;;;17.95;100.00
23733;BME280;12047;53.450;-2.286;2023-03-16T11:38:49;99775.31;;;17.99;100.00
23733;BME280;12047;53.450;-2.286;2023-03-16T11:44:04;99777.78;;;17.48;100.00
23733;BME280;12047;53.450;-2.286;2023-03-16T12:10:36;99766.09;;;18.59;100.00
23733;BME280;12047;53.450;-2.286;2023-03-16T12:15:55;99769.69;;;18.20;100.00
23733;BME280;12047;53.450;-2.286;2023-03-16T12:21:01;99762.81;;;18.51;100.00
23733;BME280;12047;53.450;-2.286;2023-03-16T12:26:05;99755.22;;;18.34;100.00
23733;BME280;12047;53.450;-2.286;2023-03-16T12:31:13;99762.13;;;18.68;100.00
23733;BME280;12047;53.450;-2.286;2023-03-16T12:47:04;99751.44;;;18.62;100.00
23733;BME280;12047;53.450;-2.286;2023-03-16T12:52:09;99753.69;;;19.03;100.00
23733;BME280;12047;53.450;-2.286;2023-03-16T12:57:15;99756.44;;;18.90;100.00
23733;BME280;12047;53.450;-2.286;2023-03-16T13:07:49;99756.13;;;18.73;100.00
23733;BME280;12047;53.450;-2.286;2023-03-16T13:12:50;99754.16;;;18.49;100.00
23733;BME280;12047;53.450;-2.286;2023-03-16T13:28:27;99734.75;;;18.47;100.00
23733;BME280;12047;53.450;-2.286;2023-03-16T13:33:30;99724.03;;;18.47;100.00
23733;BME280;12047;53.450;-2.286;2023-03-16T13:38:32;99721.00;;;18.30;100.00
23733;BME280;12047;53.450;-2.286;2023-03-16T13:43:32;99734.84;;;18.78;100.00
23733;BME280;12047;53.450;-2.286;2023-03-16T13:48:36;99717.06;;;18.32;100.00
23733;BME280;12047;53.450;-2.286;2023-03-16T13:53:39;99717.78;;;18.59;100.00
23733;BME280;12047;53.450;-2.286;2023-03-16T13:58:43;99714.31;;;18.52;100.00
23733;BME280;12047;53.450;-2.286;2023-03-16T14:03:44;99715.28;;;19.02;100.00
23733;BME280;12047;53.450;-2.286;2023-03-16T14:08:50;99716.81;;;18.47;100.00
23733;BME280;12047;53.450;-2.286;2023-03-16T14:13:56;99705.50;;;18.32;100.00
23733;BME280;12047;53.450;-2.286;2023-03-16T14:19:19;99727.19;;;18.30;100.00
23733;BME280;12047;53.450;-2.286;2023-03-16T14:24:32;99719.09;;;18.88;100.00
23733;BME280;12047;53.450;-2.286;2023-03-16T14:29:33;99712.09;;;19.12;100.00
23733;BME280;12047;53.450;-2.286;2023-03-16T14:34:38;99705.78;;;18.68;100.00
23733;BME280;12047;53.450;-2.286;2023-03-16T14:39:39;99719.78;;;18.26;100.00
23733;BME280;12047;53.450;-2.286;2023-03-16T14:44:40;99710.78;;;18.96;100.00
23733;BME280;12047;53.450;-2.286;2023-03-16T14:49:41;99714.75;;;18.43;100.00
23733;BME280;12047;53.450;-2.286;2023-03-16T14:54:42;99727.44;;;18.74;100.00
23733;BME280;12047;53.450;-2.286;2023-03-16T14:59:42;99727.31;;;18.49;100.00
23733;BME280;12047;53.450;-2.286;2023-03-16T15:04:43;99738.16;;;18.09;100.00
23733;BME280;12047;53.450;-2.286;2023-03-16T15:09:47;99739.13;;;18.34;100.00
23733;BME280;12047;53.450;-2.286;2023-03-16T15:14:52;99738.78;;;18.11;100.00
23733;BME280;12047;53.450;-2.286;2023-03-16T15:20:17;99726.47;;;17.84;100.00
23733;BME280;12047;53.450;-2.286;2023-03-16T15:25:32;99720.63;;;18.20;100.00
23733;BME280;12047;53.450;-2.286;2023-03-16T15:30:37;99734.31;;;17.92;100.00
23733;BME280;12047;53.450;-2.286;2023-03-16T15:35:39;99727.31;;;17.78;100.00
23733;BME280;12047;53.450;-2.286;2023-03-16T15:40:43;99724.44;;;17.73;100.00
23733;BME280;12047;53.450;-2.286;2023-03-16T15:45:45;99721.75;;;17.46;100.00
23733;BME280;12047;53.450;-2.286;2023-03-16T15:50:51;99724.13;;;18.14;100.00
23733;BME280;12047;53.450;-2.286;2023-03-16T15:55:54;99720.69;;;17.08;100.00
23733;BME280;12047;53.450;-2.286;2023-03-16T16:00:58;99692.28;;;17.20;100.00
23733;BME280;12047;53.450;-2.286;2023-03-16T16:06:00;99680.16;;;17.24;100.00
23733;BME280;12047;53.450;-2.286;2023-03-16T16:11:01;99670.03;;;17.52;100.00
23733;BME280;12047;53.450;-2.286;2023-03-16T16:16:05;99663.06;;;16.98;100.00
23733;BME280;12047;53.450;-2.286;2023-03-16T16:21:10;99678.25;;;17.57;100.00
23733;BME280;12047;53.450;-2.286;2023-03-16T16:26:36;99675.59;;;16.78;100.00
23733;BME280;12047;53.450;-2.286;2023-03-16T16:31:38;99668.81;;;16.82;100.00
23733;BME280;12047;53.450;-2.286;2023-03-16T16:36:38;99655.22;;;17.23;100.00
23733;BME280;12047;53.450;-2.286;2023-03-16T16:41:39;99661.38;;;16.71;100.00
23733;BME280;12047;53.450;-2.286;2023-03-16T16:46:41;99651.69;;;17.62;100.00
23733;BME280;12047;53.450;-2.286;2023-03-16T16:51:43;99661.59;;;17.42;100.00
23733;BME280;12047;53.450;-2.286;2023-03-16T16:56:43;99663.28;;;17.30;100.00
23733;BME280;12047;53.450;-2.286;2023-03-16T17:01:46;99660.50;;;17.83;100.00
23733;BME280;12047;53.450;-2.286;2023-03-16T17:06:48;99665.94;;;17.17;100.00
23733;BME280;12047;53.450;-2.286;2023-03-16T17:11:51;99664.72;;;17.26;100.00
23733;BME280;12047;53.450;-2.286;2023-03-16T17:16:55;99673.25;;;16.62;100.00
23733;BME280;12047;53.450;-2.286;2023-03-16T17:21:58;99677.47;;;17.11;100.00
23733;BME280;12047;53.450;-2.286;2023-03-16T17:26:59;99677.81;;;18.00;100.00
23733;BME280;12047;53.450;-2.286;2023-03-16T17:32:03;99684.66;;;16.97;100.00
23733;BME280;12047;53.450;-2.286;2023-03-16T17:37:12;99690.16;;;16.69;100.00
23733;BME280;12047;53.450;-2.286;2023-03-16T17:42:17;99687.78;;;17.07;100.00
23733;BME280;12047;53.450;-2.286;2023-03-16T17:47:26;99684.00;;;16.69;100.00
23733;BME280;12047;53.450;-2.286;2023-03-16T18:02:55;99691.88;;;17.36;100.00
23733;BME280;12047;53.450;-2.286;2023-03-16T18:13:29;99700.69;;;16.77;100.00
23733;BME280;12047;53.450;-2.286;2023-03-16T18:18:35;99698.06;;;17.23;100.00
23733;BME280;12047;53.450;-2.286;2023-03-16T18:23:36;99690.66;;;17.06;100.00
23733;BME280;12047;53.450;-2.286;2023-03-16T18:28:36;99677.88;;;17.34;100.00
23733;BME280;12047;53.450;-2.286;2023-03-16T18:33:38;99672.00;;;16.51;100.00
23733;BME280;12047;53.450;-2.286;2023-03-16T18:38:43;99686.53;;;17.03;100.00
23733;BME280;12047;53.450;-2.286;2023-03-16T18:43:44;99678.16;;;16.58;100.00
23733;BME280;12047;53.450;-2.286;2023-03-16T18:48:45;99687.44;;;16.62;100.00
23733;BME280;12047;53.450;-2.286;2023-03-16T18:53:47;99683.00;;;16.96;100.00
23733;BME280;12047;53.450;-2.286;2023-03-16T18:58:51;99694.75;;;17.15;100.00
23733;BME280;12047;53.450;-2.286;2023-03-16T19:03:53;99690.44;;;17.00;100.00
23733;BME280;12047;53.450;-2.286;2023-03-16T19:09:04;99691.06;;;16.42;100.00
23733;BME280;12047;53.450;-2.286;2023-03-16T19:14:15;99689.97;;;16.84;100.00
23733;BME280;12047;53.450;-2.286;2023-03-16T19:19:17;99687.75;;;17.14;100.00
23733;BME280;12047;53.450;-2.286;2023-03-16T19:24:25;99678.03;;;16.66;100.00
23733;BME280;12047;53.450;-2.286;2023-03-16T19:29:30;99656.84;;;16.72;100.00
23733;BME280;12047;53.450;-2.286;2023-03-16T19:34:32;99665.47;;;16.67;100.00
23733;BME280;12047;53.450;-2.286;2023-03-16T19:39:36;99664.38;;;16.48;100.00
23733;BME280;12047;53.450;-2.286;2023-03-16T19:44:36;99667.75;;;16.77;100.00
23733;BME280;12047;53.450;-2.286;2023-03-16T19:49:37;99666.56;;;16.25;100.00
23733;BME280;12047;53.450;-2.286;2023-03-16T19:54:37;99667.22;;;16.40;100.00
23733;BME280;12047;53.450;-2.286;2023-03-16T19:59:43;99665.31;;;16.82;100.00
23733;BME280;12047;53.450;-2.286;2023-03-16T20:04:45;99671.28;;;17.50;100.00
23733;BME280;12047;53.450;-2.286;2023-03-16T20:09:45;99668.41;;;16.98;100.00
23733;BME280;12047;53.450;-2.286;2023-03-16T20:14:47;99663.03;;;16.85;100.00
23733;BME280;12047;53.450;-2.286;2023-03-16T20:19:49;99656.38;;;16.55;100.00
23733;BME280;12047;53.450;-2.286;2023-03-16T20:24:50;99653.53;;;16.70;100.00
23733;BME280;12047;53.450;-2.286;2023-03-16T20:29:53;99655.63;;;16.74;100.00
23733;BME280;12047;53.450;-2.286;2023-03-16T20:34:54;99652.75;;;17.15;100.00
23733;BME280;12047;53.450;-2.286;2023-03-16T20:39:57;99664.09;;;17.24;100.00
23733;BME280;12047;53.450;-2.286;2023-03-16T20:50:17;99669.00;;;16.81;100.00
23733;BME280;12047;53.450;-2.286;2023-03-16T20:55:20;99663.06;;;17.31;100.00
23733;BME280;12047;53.450;-2.286;2023-03-16T21:05:58;99667.56;;;16.85;100.00
23733;BME280;12047;53.450;-2.286;2023-03-16T21:10:59;99674.81;;;17.04;100.00
23733;BME280;12047;53.450;-2.286;2023-03-16T21:16:01;99669.16;;;16.66;100.00
23733;BME280;12047;53.450;-2.286;2023-03-16T21:21:02;99669.63;;;17.35;100.00
23733;BME280;12047;53.450;-2.286;2023-03-16T21:26:04;99670.25;;;17.18;100.00
23733;BME280;12047;53.450;-2.286;2023-03-16T21:31:05;99672.69;;;16.86;100.00
23733;BME280;12047;53.450;-2.286;2023-03-16T21:36:12;99681.16;;;17.10;100.00
23733;BME280;12047;53.450;-2.286;2023-03-16T21:41:13;99677.63;;;16.76;100.00
23733;BME280;12047;53.450;-2.286;2023-03-16T21:46:23;99674.56;;;16.79;100.00
23733;BME280;12047;53.450;-2.286;2023-03-16T21:51:27;99678.41;;;16.57;100.00
23733;BME280;12047;53.450;-2.286;2023-03-16T21:56:33;99692.88;;;16.82;100.00
23733;BME280;12047;53.450;-2.286;2023-03-16T22:01:36;99687.63;;;16.54;100.00
23733;BME280;12047;53.450;-2.286;2023-03-16T22:06:37;99692.50;;;16.38;100.00
23733;BME280;12047;53.450;-2.286;2023-03-16T22:11:38;99690.41;;;16.26;100.00
23733;BME280;12047;53.450;-2.286;2023-03-16T22:16:39;99679.59;;;16.48;100.00
23733;BME280;12047;53.450;-2.286;2023-03-16T22:21:41;99682.75;;;16.71;100.00
23733;BME280;12047;53.450;-2.286;2023-03-16T22:26:44;99682.75;;;16.17;100.00
23733;BME280;12047;53.450;-2.286;2023-03-16T22:31:45;99699.13;;;16.48;100.00
23733;BME280;12047;53.450;-2.286;2023-03-16T22:36:46;99696.56;;;16.88;100.00
23733;BME280;12047;53.450;-2.286;2023-03-16T22:41:47;99690.94;;;16.56;100.00
23733;BME280;12047;53.450;-2.286;2023-03-16T22:46:48;99685.13;;;16.46;100.00
23733;BME280;12047;53.450;-2.286;2023-03-16T22:51:50;99681.41;;;16.41;100.00
23733;BME280;12047;53.450;-2.286;2023-03-16T22:56:52;99682.28;;;16.00;100.00
23733;BME280;12047;53.450;-2.286;2023-03-16T23:01:53;99678.50;;;16.29;100.00
23733;BME280;12047;53.450;-2.286;2023-03-16T23:06:53;99684.13;;;16.54;100.00
23733;BME280;12047;53.450;-2.286;2023-03-16T23:11:54;99692.47;;;16.24;100.00
23733;BME280;12047;53.450;-2.286;2023-03-16T23:16:55;99691.97;;;16.08;100.00
23733;BME280;12047;53.450;-2.286;2023-03-16T23:21:59;99696.69;;;16.53;100.00
23733;BME280;12047;53.450;-2.286;2023-03-16T23:27:02;99698.81;;;16.71;100.00
23733;BME280;12047;53.450;-2.286;2023-03-16T23:32:03;99707.91;;;16.96;100.00
23733;BME280;12047;53.450;-2.286;2023-03-16T23:37:03;99704.56;;;16.68;100.00
23733;BME280;12047;53.450;-2.286;2023-03-16T23:42:08;99709.78;;;16.42;100.00
23733;BME280;12047;53.450;-2.286;2023-03-16T23:47:09;99715.00;;;16.56;100.00
23733;BME280;12047;53.450;-2.286;2023-03-16T23:52:10;99722.03;;;16.64;100.00
23733;BME280;12047;53.450;-2.286;2023-03-16T23:57:12;99732.03;;;16.49;100.00
